Главная страница
METAR-TAF:

METAR-TAF

Аэропорты :

Сентани

Джаяпура, Индонезия

широта: 02-34-37S, долгота: 140-30-58E, высота над уровнем моря: 88 м

Текущие метеонаблюдения

Эта сводка был подготовлена 44 минут назад, в 04:00 UTC
Ветер 4 Узел от восточно-юго-восточный, изменяющийся между восточно-северо-восточный и юго-юго-восточный
Температура 29°C
Влажность 84%
Давление 1007 hPa
Видимость 10 км и более
Отдельные облака на высоте 1300 фута

METAR: WAJJ 240400Z 12004KT 070V160 9999 SCT013 29/26 Q1007

Время: 11:44 (04:44 UTC)


TAF: отсутствует

Метеонаблюдения и прогнозы для более 4000 аэропортов (сводки METAR и TAF).

Имеющиеся станции представлены на карте желтыми и красными точками.

Чтобы увидеть название станции, наведите на нее мышь.

Затем щелкните, чтобы увидеть метеонаблюдения и метеопрогнозы.

Управление картой: чтобы увеличить масштаб, щелкните зеленые кнопки с черным крестиком; чтобы уменьшить масштаб, щелкните зеленую кнопку с тире; для просмотра соседних карт щелкайте зеленые стрелки.


METAR-TAF: